Time;durP1;ratioP1;P1;durP2;ratioP2;P2;SDS_P1;SDS_P2;PMS_P1;PMS_P2;Temp;Humidity;BMP_temperature;BMP_pressure;BME280_temperature;BME280_humidity;BME280_pressure;Samples;Min_cycle;Max_cycle;Signal;HPM_P1;HPM_P2
2022/12/25 00:01:13;;;;;;;15.27;5.77;;;9.20;99.90;;;;;;5078941;28;20292;-61
2022/12/25 00:03:40;;;;;;;21.00;6.47;;;9.20;99.90;;;;;;5066964;28;20265;-61
2022/12/25 00:06:08;;;;;;;13.20;5.50;;;9.30;99.90;;;;;;5077817;28;20255;-62
2022/12/25 00:08:37;;;;;;;13.97;6.13;;;9.40;99.90;;;;;;5072676;28;20675;-61
2022/12/25 00:11:07;;;;;;;20.43;5.40;;;9.30;99.90;;;;;;5077406;28;20275;-61
2022/12/25 00:13:34;;;;;;;16.27;5.63;;;9.20;99.90;;;;;;5078436;28;20289;-60
2022/12/25 00:16:05;;;;;;;20.37;5.73;;;9.30;99.90;;;;;;5080435;28;20717;-62
2022/12/25 00:18:32;;;;;;;17.33;5.87;;;9.30;99.90;;;;;;5059365;28;20227;-61
2022/12/25 00:21:02;;;;;;;18.33;5.80;;;9.40;99.90;;;;;;5057281;28;20195;-60
2022/12/25 00:23:30;;;;;;;18.10;6.37;;;9.40;99.90;;;;;;5058067;28;20198;-62
2022/12/25 00:25:57;;;;;;;16.40;6.07;;;9.30;99.90;;;;;;5058079;28;20298;-61
2022/12/25 00:28:24;;;;;;;15.07;5.83;;;9.30;99.90;;;;;;5056905;28;21088;-61
2022/12/25 00:30:51;;;;;;;21.93;6.03;;;9.30;99.90;;;;;;5055662;28;20366;-62
2022/12/25 00:33:18;;;;;;;13.67;5.30;;;9.40;99.90;;;;;;5041916;28;20197;-63
2022/12/25 00:35:56;;;;;;;12.67;5.80;;;9.50;99.90;;;;;;5018059;28;20651;-62
2022/12/25 00:38:23;;;;;;;19.40;5.67;;;9.40;99.90;;;;;;5057708;28;20193;-61
2022/12/25 00:40:51;;;;;;;15.20;5.80;;;9.40;99.90;;;;;;5055556;28;20202;-61
2022/12/25 00:43:18;;;;;;;12.77;5.57;;;9.30;99.90;;;;;;5056235;28;20659;-61
2022/12/25 00:45:57;;;;;;;11.67;5.27;;;9.40;99.90;;;;;;5058546;28;20231;-62
2022/12/25 00:48:25;;;;;;;14.70;5.30;;;9.40;99.90;;;;;;5053997;28;20205;-61
2022/12/25 00:50:56;;;;;;;15.30;5.83;;;9.40;99.90;;;;;;5037052;28;20235;-61
2022/12/25 00:53:24;;;;;;;16.00;6.03;;;9.40;99.90;;;;;;5037455;28;20289;-61
2022/12/25 00:55:56;;;;;;;14.37;5.40;;;9.40;99.90;;;;;;5056098;28;20199;-62
2022/12/25 00:58:24;;;;;;;19.03;6.17;;;9.60;99.90;;;;;;5053374;28;20299;-61
2022/12/25 01:00:51;;;;;;;13.33;5.50;;;9.60;99.90;;;;;;5057163;28;20204;-61
2022/12/25 01:03:18;;;;;;;16.73;5.87;;;9.50;99.90;;;;;;5056044;28;20215;-60
2022/12/25 01:06:01;;;;;;;13.70;5.60;;;9.40;99.90;;;;;;5055510;28;20210;-61
2022/12/25 01:08:30;;;;;;;18.10;6.00;;;9.50;99.90;;;;;;5056548;28;20360;-61
2022/12/25 01:10:59;;;;;;;14.00;5.23;;;9.50;99.90;;;;;;5056074;28;20323;-61
2022/12/25 01:13:27;;;;;;;19.40;5.87;;;9.50;99.90;;;;;;5056202;28;20220;-60
2022/12/25 01:15:54;;;;;;;15.30;5.00;;;9.50;99.90;;;;;;5055946;28;20227;-60
2022/12/25 01:18:22;;;;;;;12.73;5.40;;;9.40;99.90;;;;;;5051384;28;20232;-61
2022/12/25 01:20:50;;;;;;;13.40;5.77;;;9.50;99.90;;;;;;5079148;28;20215;-61
2022/12/25 01:23:16;;;;;;;13.27;5.47;;;9.40;99.90;;;;;;5073743;28;22170;-61
2022/12/25 01:25:43;;;;;;;16.27;5.23;;;9.50;99.90;;;;;;5060903;28;20216;-61
2022/12/25 01:28:10;;;;;;;14.47;5.03;;;9.50;99.90;;;;;;5076906;28;20186;-60
2022/12/25 01:30:36;;;;;;;16.63;5.13;;;9.50;99.90;;;;;;5061898;28;20641;-60
2022/12/25 01:33:03;;;;;;;12.77;5.13;;;9.60;99.90;;;;;;5061677;28;20286;-60
2022/12/25 01:35:30;;;;;;;15.00;5.13;;;9.50;99.90;;;;;;5079953;28;20227;-61
2022/12/25 01:37:57;;;;;;;16.83;6.40;;;9.50;99.90;;;;;;5077117;28;20227;-61
2022/12/25 01:40:23;;;;;;;11.10;4.97;;;9.50;99.90;;;;;;5079297;28;20209;-61
2022/12/25 01:42:50;;;;;;;15.77;5.80;;;9.60;99.90;;;;;;5080276;28;20856;-61
2022/12/25 01:45:26;;;;;;;13.70;5.40;;;9.60;99.90;;;;;;5081286;28;20206;-62
2022/12/25 01:47:53;;;;;;;8.73;4.60;;;9.60;99.90;;;;;;5081827;28;20236;-61
2022/12/25 01:50:20;;;;;;;17.53;5.37;;;9.50;99.90;;;;;;5082547;28;20202;-61
2022/12/25 01:52:49;;;;;;;13.77;6.03;;;9.50;99.90;;;;;;5079512;28;20224;-60
2022/12/25 01:55:16;;;;;;;14.30;4.93;;;9.50;99.90;;;;;;5079153;28;20747;-60
2022/12/25 01:57:43;;;;;;;16.83;5.37;;;9.50;99.90;;;;;;5079220;28;20676;-60
2022/12/25 02:00:11;;;;;;;21.33;6.10;;;9.60;99.90;;;;;;5078780;28;20196;-61
2022/12/25 02:02:40;;;;;;;9.13;5.00;;;9.70;99.90;;;;;;5079299;28;20227;-61
2022/12/25 02:05:26;;;;;;;13.20;5.60;;;9.80;99.90;;;;;;5082903;28;20287;-61
2022/12/25 02:07:54;;;;;;;10.13;4.63;;;9.70;99.90;;;;;;5079886;28;20214;-61
2022/12/25 02:10:21;;;;;;;9.77;4.70;;;9.70;99.90;;;;;;5082675;28;20611;-60
2022/12/25 02:12:49;;;;;;;15.73;5.90;;;9.60;99.90;;;;;;5080941;28;20232;-60
2022/12/25 02:15:19;;;;;;;14.87;4.97;;;9.60;99.90;;;;;;5082145;28;20274;-60
2022/12/25 02:17:49;;;;;;;13.53;5.50;;;9.60;99.90;;;;;;5081810;28;20724;-60
2022/12/25 02:20:38;;;;;;;16.70;5.13;;;9.60;99.90;;;;;;5064846;28;20759;-62
2022/12/25 02:23:26;;;;;;;11.10;5.40;;;9.60;99.90;;;;;;5080007;28;20236;-60
2022/12/25 02:26:02;;;;;;;12.50;4.90;;;9.50;99.90;;;;;;5081745;28;20561;-61
2022/12/25 02:28:41;;;;;;;10.20;4.87;;;9.60;99.90;;;;;;5063750;28;20746;-60
2022/12/25 02:31:20;;;;;;;9.63;4.23;;;9.50;99.90;;;;;;5080550;28;20221;-61
2022/12/25 02:34:01;;;;;;;12.80;4.97;;;9.60;99.90;;;;;;5081631;28;20195;-60
2022/12/25 02:36:35;;;;;;;12.03;4.67;;;9.50;99.90;;;;;;5081817;28;20219;-60
2022/12/25 02:41:58;;;;;;;11.83;5.00;;;9.50;99.90;;;;;;5081148;28;20291;-61
2022/12/25 03:07:03;;;;;;;13.93;5.00;;;9.50;99.90;;;;;;5079240;28;20668;-60
2022/12/25 03:12:41;;;;;;;7.27;4.10;;;9.60;99.90;;;;;;5081795;28;20310;-65
2022/12/25 03:18:00;;;;;;;9.13;4.43;;;9.50;99.90;;;;;;5080495;28;20317;-60
2022/12/25 03:28:50;;;;;;;9.07;3.97;;;9.50;99.90;;;;;;5081513;28;20652;-60
2022/12/25 03:31:40;;;;;;;9.80;4.30;;;9.40;99.90;;;;;;5082730;28;20213;-60
2022/12/25 04:36:33;;;;;;;6.20;3.50;;;9.30;99.90;;;;;;5080462;28;20202;-60
2022/12/25 04:38:59;;;;;;;12.60;4.00;;;9.30;99.90;;;;;;5059399;28;20205;-61
2022/12/25 04:41:26;;;;;;;12.50;3.50;;;9.20;99.90;;;;;;5079932;28;20205;-61
2022/12/25 04:43:53;;;;;;;9.37;4.10;;;9.30;99.90;;;;;;5060952;28;20220;-62
2022/12/25 04:46:20;;;;;;;9.37;3.40;;;9.30;99.90;;;;;;5078044;28;20234;-60
2022/12/25 04:48:46;;;;;;;11.10;3.90;;;9.30;99.90;;;;;;5077449;28;20244;-61
2022/12/25 04:51:19;;;;;;;8.53;3.63;;;9.30;99.90;;;;;;5079470;28;20200;-61
2022/12/25 04:53:47;;;;;;;8.30;3.53;;;9.40;99.90;;;;;;5078769;28;20213;-61
2022/12/25 04:56:15;;;;;;;6.77;3.40;;;9.40;99.90;;;;;;5079249;28;20209;-60
2022/12/25 04:58:42;;;;;;;7.07;3.40;;;9.40;99.90;;;;;;5078401;28;20200;-60
2022/12/25 05:01:10;;;;;;;11.00;4.13;;;9.40;99.90;;;;;;5078842;28;20201;-60
2022/12/25 05:03:37;;;;;;;8.53;3.23;;;9.30;99.90;;;;;;5076732;28;20294;-60
2022/12/25 05:06:05;;;;;;;9.67;3.90;;;9.40;99.90;;;;;;5079054;28;20220;-60
2022/12/25 05:08:33;;;;;;;11.23;4.93;;;9.30;99.90;;;;;;5059800;28;20205;-61
2022/12/25 05:11:12;;;;;;;11.00;3.53;;;9.30;99.90;;;;;;5062771;28;20314;-61
2022/12/25 05:13:39;;;;;;;11.10;3.97;;;9.40;99.90;;;;;;5079989;28;20216;-60
2022/12/25 05:16:18;;;;;;;8.17;3.90;;;9.40;99.90;;;;;;5061843;28;20200;-60
2022/12/25 05:18:48;;;;;;;9.27;3.67;;;9.40;99.90;;;;;;5077655;28;20659;-61
2022/12/25 05:21:15;;;;;;;10.30;3.60;;;9.40;99.90;;;;;;5080317;28;20203;-60
2022/12/25 05:23:47;;;;;;;7.70;3.80;;;9.40;99.90;;;;;;5059260;28;20677;-60
2022/12/25 05:26:15;;;;;;;8.60;3.70;;;9.40;99.90;;;;;;5080547;28;20199;-60
2022/12/25 05:28:42;;;;;;;7.00;3.97;;;9.30;99.90;;;;;;5078434;28;20202;-60
2022/12/25 05:31:09;;;;;;;7.67;3.67;;;9.40;99.90;;;;;;5079554;28;20233;-60
2022/12/25 05:33:36;;;;;;;7.60;3.60;;;9.40;99.90;;;;;;5078026;28;20532;-60
2022/12/25 05:36:05;;;;;;;7.63;2.97;;;9.50;99.90;;;;;;5061548;28;20213;-60
2022/12/25 05:38:32;;;;;;;5.83;3.27;;;9.50;99.90;;;;;;5076946;28;20610;-60
2022/12/25 05:40:59;;;;;;;6.03;3.53;;;9.40;99.90;;;;;;5062250;28;20198;-60
2022/12/25 05:43:27;;;;;;;8.17;3.30;;;9.40;99.90;;;;;;5078099;28;20206;-60
2022/12/25 05:45:54;;;;;;;11.80;3.93;;;9.40;99.90;;;;;;5079320;28;20207;-60
2022/12/25 05:48:21;;;;;;;3.87;2.73;;;9.40;99.90;;;;;;5073707;28;20268;-61
2022/12/25 05:50:48;;;;;;;6.90;3.50;;;9.30;99.90;;;;;;5075552;28;20206;-60
2022/12/25 05:53:15;;;;;;;6.43;3.33;;;9.30;99.90;;;;;;5078404;28;20608;-61
2022/12/25 05:55:42;;;;;;;7.67;3.40;;;9.20;99.90;;;;;;5078765;28;20707;-61
2022/12/25 05:58:10;;;;;;;5.57;2.87;;;9.20;99.90;;;;;;5078088;28;20270;-60
2022/12/25 06:00:38;;;;;;;6.33;2.47;;;9.20;99.90;;;;;;5080604;28;20207;-60
2022/12/25 06:03:05;;;;;;;6.00;2.60;;;9.20;99.90;;;;;;5078499;28;20568;-60
2022/12/25 06:05:32;;;;;;;9.23;3.10;;;9.30;99.90;;;;;;5079323;28;20221;-60
2022/12/25 06:07:59;;;;;;;4.73;2.70;;;9.30;99.90;;;;;;5077530;28;20528;-61
2022/12/25 06:10:26;;;;;;;5.07;2.23;;;9.40;99.90;;;;;;5061089;28;20321;-60
2022/12/25 06:12:53;;;;;;;6.90;2.50;;;9.40;99.90;;;;;;5077817;28;20221;-61
2022/12/25 06:15:20;;;;;;;7.67;2.53;;;9.40;99.90;;;;;;5067699;28;20297;-60
2022/12/25 06:17:47;;;;;;;5.30;2.70;;;9.50;99.90;;;;;;5078916;28;20314;-61
2022/12/25 06:20:13;;;;;;;4.73;1.93;;;9.50;99.90;;;;;;5082786;28;20205;-60
2022/12/25 06:22:40;;;;;;;4.40;2.30;;;9.40;99.90;;;;;;5059760;28;20254;-62
2022/12/25 06:25:07;;;;;;;5.80;2.20;;;9.50;99.90;;;;;;5080565;28;20243;-61
2022/12/25 06:27:34;;;;;;;3.83;1.90;;;9.50;99.90;;;;;;5076596;28;20197;-61
2022/12/25 06:30:01;;;;;;;4.10;2.73;;;9.70;99.90;;;;;;5079347;28;20293;-61
2022/12/25 06:32:28;;;;;;;3.43;2.13;;;9.70;99.90;;;;;;5077975;28;20286;-60
2022/12/25 06:34:55;;;;;;;8.07;1.93;;;9.70;99.90;;;;;;5062967;28;20225;-61
2022/12/25 06:37:22;;;;;;;5.73;1.93;;;9.70;99.90;;;;;;5065258;28;20253;-60
2022/12/25 06:39:48;;;;;;;7.23;2.03;;;9.70;99.90;;;;;;5062456;28;20245;-60
2022/12/25 06:42:15;;;;;;;4.23;1.83;;;9.80;99.90;;;;;;5075566;28;20576;-61
2022/12/25 06:44:43;;;;;;;10.00;2.13;;;9.70;99.90;;;;;;5079717;28;20289;-60
2022/12/25 06:47:10;;;;;;;5.57;2.30;;;9.80;99.90;;;;;;5060574;28;20213;-60
2022/12/25 06:49:37;;;;;;;3.40;1.73;;;9.90;99.90;;;;;;5060529;28;20229;-60
2022/12/25 06:52:03;;;;;;;5.20;1.93;;;9.90;99.90;;;;;;5061727;28;20216;-63
2022/12/25 06:54:30;;;;;;;5.53;1.87;;;10.00;99.90;;;;;;5078800;28;20194;-61
2022/12/25 06:56:57;;;;;;;4.00;2.03;;;10.00;99.90;;;;;;5078315;28;21094;-60
2022/12/25 06:59:24;;;;;;;4.60;1.67;;;10.00;99.90;;;;;;5079623;28;20286;-60
2022/12/25 07:01:57;;;;;;;5.87;2.10;;;9.90;99.90;;;;;;5068403;28;20203;-60
2022/12/25 07:04:24;;;;;;;5.67;1.80;;;9.90;99.90;;;;;;5077238;28;20200;-60
2022/12/25 07:06:51;;;;;;;3.43;2.13;;;9.90;99.90;;;;;;5076281;28;20198;-61
2022/12/25 07:09:18;;;;;;;7.30;2.47;;;9.90;99.90;;;;;;5077066;28;20715;-61
2022/12/25 07:11:45;;;;;;;3.93;1.60;;;10.00;99.90;;;;;;5082914;28;20264;-60
2022/12/25 07:14:22;;;;;;;4.80;1.57;;;9.90;99.90;;;;;;5076271;28;20214;-60
2022/12/25 07:16:50;;;;;;;2.80;1.63;;;9.90;99.90;;;;;;5079220;28;20611;-60
2022/12/25 07:19:18;;;;;;;5.77;2.00;;;9.90;99.90;;;;;;5077525;28;20249;-60
2022/12/25 07:21:45;;;;;;;4.30;1.90;;;10.00;99.90;;;;;;5077275;28;20295;-61
2022/12/25 07:24:20;;;;;;;4.07;1.97;;;10.10;99.90;;;;;;5075524;28;20302;-61
2022/12/25 07:26:47;;;;;;;2.70;1.40;;;10.00;99.90;;;;;;5075376;28;20399;-60
2022/12/25 07:29:15;;;;;;;4.80;1.83;;;10.00;99.90;;;;;;5075850;28;20199;-60
2022/12/25 07:31:42;;;;;;;5.13;1.60;;;9.90;99.90;;;;;;5079024;28;20280;-60
2022/12/25 07:34:08;;;;;;;7.67;1.90;;;10.10;99.90;;;;;;5075227;28;20214;-60
2022/12/25 07:36:35;;;;;;;6.93;2.00;;;10.00;99.90;;;;;;5077121;28;20242;-62
2022/12/25 07:39:02;;;;;;;5.80;2.03;;;10.00;99.90;;;;;;5074426;28;20241;-60
2022/12/25 07:41:29;;;;;;;6.73;1.50;;;10.10;99.90;;;;;;5076842;28;20199;-60
2022/12/25 07:43:56;;;;;;;4.50;2.50;;;10.10;99.90;;;;;;5068515;28;20212;-61
2022/12/25 07:46:23;;;;;;;5.47;1.90;;;10.10;99.90;;;;;;5081882;28;20203;-60
2022/12/25 07:48:50;;;;;;;5.03;1.80;;;10.20;99.90;;;;;;5079446;28;21162;-60
2022/12/25 07:51:17;;;;;;;4.07;1.40;;;10.20;99.90;;;;;;5079941;28;20203;-60
2022/12/25 07:53:44;;;;;;;2.27;1.40;;;10.20;99.90;;;;;;5079554;28;20302;-60
2022/12/25 07:56:16;;;;;;;2.23;1.43;;;10.20;99.90;;;;;;5062548;28;20287;-60
2022/12/25 07:58:44;;;;;;;2.23;2.00;;;10.20;99.90;;;;;;5079279;28;20197;-61
2022/12/25 08:01:13;;;;;;;4.57;1.83;;;10.30;99.90;;;;;;5080862;28;20207;-59
2022/12/25 08:03:40;;;;;;;4.93;1.93;;;10.20;99.90;;;;;;5079787;28;20280;-59
2022/12/25 08:06:09;;;;;;;7.30;2.10;;;10.20;99.90;;;;;;5080533;28;20199;-59
2022/12/25 08:08:38;;;;;;;4.27;1.73;;;10.20;99.90;;;;;;5079630;28;21195;-59
2022/12/25 08:11:07;;;;;;;3.53;1.53;;;10.20;99.90;;;;;;5080752;28;20229;-62
2022/12/25 08:13:34;;;;;;;2.40;1.47;;;10.20;99.90;;;;;;5080535;28;20222;-59
2022/12/25 08:16:04;;;;;;;4.67;2.10;;;10.30;99.90;;;;;;5080526;28;20235;-60
2022/12/25 08:18:31;;;;;;;5.40;2.30;;;10.20;99.90;;;;;;5077306;28;20317;-60
2022/12/25 08:21:03;;;;;;;3.77;1.70;;;10.10;99.90;;;;;;5080728;28;20655;-59
2022/12/25 08:23:33;;;;;;;4.97;1.80;;;10.20;99.90;;;;;;5078382;28;20262;-59
2022/12/25 08:26:02;;;;;;;4.30;1.93;;;10.20;99.90;;;;;;5080288;28;20242;-62
2022/12/25 08:28:32;;;;;;;5.67;1.70;;;10.30;99.90;;;;;;5078071;28;20260;-59
2022/12/25 08:31:05;;;;;;;8.00;1.93;;;10.30;99.90;;;;;;5079225;28;20202;-63
2022/12/25 08:33:32;;;;;;;2.87;1.60;;;10.30;99.90;;;;;;5077160;28;20209;-63
2022/12/25 08:36:07;;;;;;;6.33;2.10;;;10.30;99.90;;;;;;5080417;28;20241;-60
2022/12/25 08:38:34;;;;;;;3.63;1.60;;;10.30;99.90;;;;;;5078324;28;20285;-61
2022/12/25 08:41:02;;;;;;;3.90;1.90;;;10.30;99.90;;;;;;5079914;28;20202;-60
2022/12/25 08:43:29;;;;;;;5.53;1.57;;;10.40;99.90;;;;;;5077021;28;20230;-61
2022/12/25 08:45:56;;;;;;;4.07;1.90;;;10.30;99.90;;;;;;5076912;28;20207;-60
2022/12/25 08:48:22;;;;;;;2.63;2.07;;;10.30;99.90;;;;;;5076790;28;20199;-60
2022/12/25 08:50:51;;;;;;;3.27;1.70;;;10.30;99.90;;;;;;5080178;28;20260;-60
2022/12/25 08:53:18;;;;;;;3.13;1.67;;;10.30;99.90;;;;;;5060782;28;20219;-61
2022/12/25 08:55:45;;;;;;;3.37;2.37;;;10.30;99.90;;;;;;5080548;28;20658;-61
2022/12/25 08:58:16;;;;;;;7.03;2.50;;;10.30;99.90;;;;;;5060063;28;20711;-61
2022/12/25 09:00:42;;;;;;;4.77;2.10;;;10.20;99.90;;;;;;5077314;28;20199;-60
2022/12/25 09:03:09;;;;;;;6.47;2.30;;;10.20;99.90;;;;;;5077590;28;20293;-62
2022/12/25 09:05:37;;;;;;;4.73;2.30;;;10.10;99.90;;;;;;5077615;28;20281;-61
2022/12/25 09:08:04;;;;;;;3.97;2.13;;;10.10;99.90;;;;;;5060438;28;20212;-60
2022/12/25 09:10:35;;;;;;;6.67;2.37;;;10.30;99.90;;;;;;5074993;28;20268;-60
2022/12/25 09:13:02;;;;;;;6.47;2.60;;;10.30;99.90;;;;;;5075235;28;20260;-61
2022/12/25 09:15:30;;;;;;;6.17;2.00;;;10.30;99.90;;;;;;5075674;28;20232;-62
2022/12/25 09:17:57;;;;;;;6.40;2.43;;;10.20;99.90;;;;;;5072432;28;21121;-63
2022/12/25 09:20:24;;;;;;;5.67;3.03;;;10.20;99.90;;;;;;5061208;28;20297;-60
2022/12/25 09:22:51;;;;;;;5.97;2.70;;;10.10;99.90;;;;;;5052547;28;20307;-61
2022/12/25 09:25:17;;;;;;;7.40;2.80;;;10.00;99.90;;;;;;4713793;28;10000179;-60
2022/12/25 09:27:44;;;;;;;8.03;2.57;;;10.00;99.90;;;;;;5070415;28;20314;-61
2022/12/25 09:30:11;;;;;;;5.13;2.47;;;10.00;99.90;;;;;;5071878;28;20584;-61
2022/12/25 09:32:39;;;;;;;4.43;2.50;;;10.00;99.90;;;;;;5047115;28;20206;-62
2022/12/25 09:35:07;;;;;;;2.87;2.17;;;10.10;99.90;;;;;;5072860;28;20197;-60
2022/12/25 09:37:33;;;;;;;7.23;2.67;;;10.10;99.90;;;;;;5058148;28;20208;-61
2022/12/25 09:40:00;;;;;;;4.17;2.30;;;10.10;99.90;;;;;;5070626;28;20212;-61
2022/12/25 09:42:30;;;;;;;3.67;1.97;;;10.10;99.90;;;;;;5072194;28;20202;-62
2022/12/25 09:45:03;;;;;;;8.10;2.57;;;10.10;99.90;;;;;;5068151;28;20205;-61
2022/12/25 09:47:33;;;;;;;6.97;2.83;;;10.20;99.90;;;;;;5073286;28;20244;-62
2022/12/25 09:50:12;;;;;;;5.47;3.07;;;10.20;99.90;;;;;;5075926;28;20282;-62
2022/12/25 09:53:01;;;;;;;7.20;2.77;;;10.20;99.90;;;;;;5076422;28;20336;-62
2022/12/25 09:55:31;;;;;;;7.10;2.57;;;10.20;99.90;;;;;;5076320;28;20595;-63
2022/12/25 09:58:01;;;;;;;5.23;2.93;;;10.20;99.90;;;;;;5071598;28;20244;-61
2022/12/25 10:00:35;;;;;;;5.93;2.53;;;10.20;99.90;;;;;;5057480;28;20218;-62
2022/12/25 10:03:43;;;;;;;4.73;2.93;;;10.20;99.90;;;;;;5075597;28;20199;-61
2022/12/25 10:06:12;;;;;;;5.57;3.00;;;10.20;99.90;;;;;;5076603;28;20300;-62
2022/12/25 10:08:48;;;;;;;4.70;3.00;;;10.30;99.90;;;;;;5072238;28;21020;-62
2022/12/25 10:11:44;;;;;;;3.40;2.27;;;10.30;99.90;;;;;;5060473;28;20608;-61
2022/12/25 10:14:21;;;;;;;5.73;2.70;;;10.30;99.90;;;;;;5069966;28;20219;-61
2022/12/25 10:17:10;;;;;;;6.57;2.93;;;10.30;99.90;;;;;;5062155;28;20202;-61
2022/12/25 10:20:06;;;;;;;6.43;3.30;;;10.30;99.90;;;;;;5062437;28;20258;-61
2022/12/25 10:22:43;;;;;;;4.70;2.67;;;10.30;99.90;;;;;;5080085;28;20285;-61
2022/12/25 10:25:20;;;;;;;5.63;2.80;;;10.30;99.90;;;;;;5062574;28;20203;-60
2022/12/25 10:27:59;;;;;;;5.50;2.70;;;10.30;99.90;;;;;;5063679;28;20209;-62
2022/12/25 10:30:27;;;;;;;5.10;2.80;;;10.30;99.90;;;;;;5076350;28;20224;-63
2022/12/25 10:32:56;;;;;;;4.20;2.63;;;10.30;99.90;;;;;;5071340;28;20673;-62
2022/12/25 10:35:26;;;;;;;5.53;2.53;;;10.40;99.90;;;;;;5076975;28;20298;-63
2022/12/25 10:38:04;;;;;;;5.90;2.90;;;10.30;99.90;;;;;;5060233;28;20209;-63
2022/12/25 10:40:50;;;;;;;5.00;2.57;;;10.30;99.90;;;;;;5079830;28;20766;-62
2022/12/25 10:43:25;;;;;;;3.70;2.40;;;10.40;99.90;;;;;;5079490;28;20633;-62
2022/12/25 10:45:52;;;;;;;5.97;2.63;;;10.30;99.90;;;;;;5070431;28;20283;-63
2022/12/25 10:48:25;;;;;;;5.53;2.80;;;10.20;99.90;;;;;;5080508;28;20203;-62
2022/12/25 10:50:52;;;;;;;6.60;2.80;;;10.20;99.90;;;;;;5078218;28;20218;-62
2022/12/25 10:53:25;;;;;;;4.70;2.27;;;10.30;99.90;;;;;;5078963;28;20703;-60
2022/12/25 10:56:03;;;;;;;7.87;2.90;;;10.30;99.90;;;;;;5073441;28;20217;-58
2022/12/25 10:58:31;;;;;;;9.20;3.10;;;10.30;99.90;;;;;;5076540;28;20285;-61
2022/12/25 11:01:07;;;;;;;5.97;2.73;;;10.20;99.90;;;;;;5068826;28;20301;-61
2022/12/25 11:03:37;;;;;;;9.50;2.70;;;10.20;99.90;;;;;;5074919;28;20309;-61
2022/12/25 11:06:06;;;;;;;6.17;3.27;;;10.20;99.90;;;;;;5078372;28;20218;-62
2022/12/25 11:08:33;;;;;;;7.47;3.00;;;10.20;99.90;;;;;;5073953;28;20336;-61
2022/12/25 11:11:05;;;;;;;5.17;3.10;;;10.20;99.90;;;;;;5072913;28;20349;-60
2022/12/25 11:13:36;;;;;;;7.50;2.93;;;10.30;99.90;;;;;;5075501;28;20362;-61
2022/12/25 11:16:08;;;;;;;4.87;3.17;;;10.30;99.90;;;;;;5075828;28;20230;-61
2022/12/25 11:18:45;;;;;;;5.70;3.20;;;10.20;99.90;;;;;;5072616;28;20239;-61
2022/12/25 11:21:21;;;;;;;5.43;3.37;;;10.20;99.90;;;;;;5070992;28;20517;-60
2022/12/25 11:23:54;;;;;;;3.97;3.20;;;10.20;99.90;;;;;;5081172;28;20308;-68
2022/12/25 11:26:22;;;;;;;6.83;3.67;;;10.30;99.90;;;;;;5076664;28;20213;-67
2022/12/25 11:28:51;;;;;;;8.33;3.60;;;10.30;99.90;;;;;;5062172;28;20206;-61
2022/12/25 11:31:21;;;;;;;6.93;3.57;;;10.20;99.90;;;;;;5077349;28;20201;-60
2022/12/25 11:34:01;;;;;;;6.40;3.70;;;10.20;99.90;;;;;;5076596;28;20215;-60
2022/12/25 11:36:44;;;;;;;8.47;4.00;;;10.20;99.90;;;;;;5074812;28;20199;-62
2022/12/25 11:39:31;;;;;;;7.43;3.90;;;10.20;99.90;;;;;;5076273;28;20299;-64
2022/12/25 11:42:04;;;;;;;7.67;3.83;;;10.20;99.90;;;;;;5059810;28;20205;-61
2022/12/25 11:45:04;;;;;;;5.03;3.90;;;10.10;99.90;;;;;;5079130;28;20587;-61
2022/12/25 11:47:56;;;;;;;5.37;4.03;;;10.20;99.90;;;;;;5022497;28;20564;-62
2022/12/25 11:50:31;;;;;;;5.03;3.23;;;10.20;99.90;;;;;;5073521;28;20738;-61
2022/12/25 11:53:01;;;;;;;7.10;3.70;;;10.20;99.90;;;;;;5075023;28;20218;-61
2022/12/25 11:55:41;;;;;;;7.07;4.47;;;10.20;99.90;;;;;;5074626;28;20711;-62
2022/12/25 11:58:19;;;;;;;6.63;3.93;;;10.20;99.90;;;;;;5074408;28;20198;-61
2022/12/25 12:00:48;;;;;;;7.43;3.93;;;10.20;99.90;;;;;;5073955;28;20293;-61
2022/12/25 12:03:26;;;;;;;6.73;4.30;;;10.30;99.90;;;;;;5076159;28;20199;-61
2022/12/25 12:06:22;;;;;;;5.33;4.30;;;10.20;99.90;;;;;;5076859;28;20195;-61
2022/12/25 12:08:55;;;;;;;6.50;3.87;;;10.20;99.90;;;;;;5026409;28;20269;-61
2022/12/25 12:12:00;;;;;;;7.63;4.30;;;10.20;99.90;;;;;;5068449;28;20232;-61
2022/12/25 12:14:41;;;;;;;7.50;4.07;;;10.10;99.90;;;;;;5035994;28;20223;-60
2022/12/25 12:17:11;;;;;;;6.63;4.03;;;10.00;99.90;;;;;;5075352;28;20310;-61
2022/12/25 12:19:38;;;;;;;5.50;4.20;;;10.00;99.90;;;;;;5073411;28;20230;-61
2022/12/25 12:22:06;;;;;;;7.57;4.10;;;10.10;99.90;;;;;;5075891;28;20206;-62
2022/12/25 12:24:39;;;;;;;6.03;4.27;;;10.10;99.90;;;;;;5072848;28;20304;-61
2022/12/25 12:27:36;;;;;;;11.03;4.53;;;10.20;99.90;;;;;;5076425;28;20646;-61
2022/12/25 12:30:05;;;;;;;8.03;5.00;;;10.20;99.90;;;;;;5072112;28;20289;-62
2022/12/25 12:32:42;;;;;;;5.70;4.33;;;10.20;99.90;;;;;;5063416;28;20215;-61
2022/12/25 12:35:23;;;;;;;9.33;4.77;;;10.10;99.90;;;;;;5055211;28;20267;-61
2022/12/25 12:37:58;;;;;;;7.07;4.87;;;10.20;99.90;;;;;;5072681;28;20217;-62
2022/12/25 12:40:36;;;;;;;9.27;5.37;;;10.20;99.90;;;;;;5072591;28;20204;-61
2022/12/25 12:43:05;;;;;;;7.80;5.00;;;10.20;99.90;;;;;;5058726;28;20203;-61
2022/12/25 12:45:35;;;;;;;8.10;5.37;;;10.20;99.90;;;;;;5056698;28;20207;-61
2022/12/25 12:48:14;;;;;;;8.27;5.20;;;10.30;99.90;;;;;;5056417;28;20345;-62
2022/12/25 12:50:41;;;;;;;9.97;5.70;;;10.20;99.90;;;;;;5072645;28;20208;-62
2022/12/25 12:53:30;;;;;;;7.13;5.27;;;10.20;99.90;;;;;;5058402;28;20297;-61
2022/12/25 12:56:08;;;;;;;9.27;5.60;;;10.20;99.90;;;;;;5075230;28;20207;-62
2022/12/25 12:58:39;;;;;;;8.50;5.00;;;10.20;99.90;;;;;;5074015;28;20206;-62
2022/12/25 13:01:24;;;;;;;8.27;5.30;;;10.20;99.90;;;;;;5068953;28;20203;-62
2022/12/25 13:04:33;;;;;;;6.20;4.60;;;10.20;99.90;;;;;;5073439;28;20241;-62
2022/12/25 13:07:27;;;;;;;7.33;4.73;;;10.30;99.90;;;;;;5076537;28;20241;-62
2022/12/25 13:09:57;;;;;;;6.93;4.60;;;10.20;99.90;;;;;;5078075;28;20581;-63
2022/12/25 13:12:24;;;;;;;6.97;4.57;;;10.20;99.90;;;;;;5055182;28;20297;-62
2022/12/25 13:14:51;;;;;;;6.57;5.50;;;10.20;99.90;;;;;;5076310;28;20217;-62
2022/12/25 13:17:24;;;;;;;7.33;5.50;;;10.20;99.90;;;;;;5053313;28;20201;-62
2022/12/25 13:19:59;;;;;;;7.10;5.10;;;10.10;99.90;;;;;;5076282;28;20238;-62
2022/12/25 13:22:32;;;;;;;6.73;5.67;;;10.20;99.90;;;;;;5077409;28;20273;-62
2022/12/25 13:25:07;;;;;;;7.67;5.97;;;10.10;99.90;;;;;;5059747;28;20577;-62
2022/12/25 13:27:34;;;;;;;8.07;5.80;;;10.20;99.90;;;;;;5064509;28;20217;-62
2022/12/25 13:30:17;;;;;;;6.93;5.47;;;10.20;99.90;;;;;;5081235;28;20632;-62
2022/12/25 13:32:44;;;;;;;10.40;5.97;;;10.30;99.90;;;;;;5075888;28;20276;-61
2022/12/25 13:35:14;;;;;;;8.27;5.30;;;10.20;99.90;;;;;;5080770;28;20302;-61
2022/12/25 13:37:41;;;;;;;7.07;5.63;;;10.10;99.90;;;;;;5077544;28;20233;-62
2022/12/25 13:40:26;;;;;;;6.67;5.40;;;10.20;99.90;;;;;;5062034;28;20738;-62
2022/12/25 13:42:59;;;;;;;7.57;5.30;;;10.30;99.90;;;;;;5081303;28;20535;-61
2022/12/25 13:45:29;;;;;;;6.73;5.67;;;10.20;99.90;;;;;;5079663;28;20282;-62
2022/12/25 13:47:56;;;;;;;5.90;5.03;;;10.20;99.90;;;;;;5079383;28;20241;-61
2022/12/25 13:50:27;;;;;;;5.90;5.30;;;10.30;99.90;;;;;;5079078;28;20241;-61
2022/12/25 13:52:56;;;;;;;8.67;5.70;;;10.30;99.90;;;;;;5078557;28;20260;-62
2022/12/25 13:55:28;;;;;;;6.60;5.67;;;10.40;99.90;;;;;;5080462;28;20333;-61
2022/12/25 13:58:04;;;;;;;8.97;5.57;;;10.40;99.90;;;;;;5077794;28;20676;-61
2022/12/25 14:00:35;;;;;;;8.13;5.77;;;10.40;99.90;;;;;;5077956;28;20285;-63
2022/12/25 14:03:04;;;;;;;6.57;5.53;;;10.40;99.90;;;;;;5074691;28;20245;-62
2022/12/25 14:05:34;;;;;;;7.93;6.10;;;10.30;99.90;;;;;;5076990;28;20265;-63
2022/12/25 14:08:18;;;;;;;8.13;5.93;;;10.30;99.90;;;;;;5062999;28;20208;-60
2022/12/25 14:10:48;;;;;;;7.43;5.50;;;10.30;99.90;;;;;;5077017;28;20730;-60
2022/12/25 14:13:16;;;;;;;8.67;6.03;;;10.30;99.90;;;;;;5059538;28;20606;-60
2022/12/25 14:15:46;;;;;;;7.70;5.97;;;10.30;99.90;;;;;;5074128;28;20222;-60
2022/12/25 14:18:15;;;;;;;8.57;6.10;;;10.30;99.90;;;;;;5076805;28;20318;-60
2022/12/25 14:21:06;;;;;;;6.53;5.43;;;10.40;99.90;;;;;;5077836;28;20559;-68
2022/12/25 14:23:44;;;;;;;7.13;5.57;;;10.30;99.90;;;;;;5074512;28;20203;-63
2022/12/25 14:26:22;;;;;;;9.20;5.37;;;10.30;99.90;;;;;;5075455;28;20217;-60
2022/12/25 14:28:52;;;;;;;8.30;6.77;;;10.40;99.90;;;;;;5071991;28;20319;-62
2022/12/25 14:31:20;;;;;;;8.07;6.53;;;10.30;99.90;;;;;;5076216;28;20198;-62
2022/12/25 14:33:48;;;;;;;7.53;6.27;;;10.40;99.90;;;;;;5077685;28;20225;-63
2022/12/25 14:36:15;;;;;;;9.83;6.37;;;10.40;99.90;;;;;;5071302;28;20709;-61
2022/12/25 14:38:42;;;;;;;6.80;6.07;;;10.40;99.90;;;;;;5075808;28;20221;-61
2022/12/25 14:41:44;;;;;;;8.20;6.73;;;10.40;99.90;;;;;;5075575;28;20199;-61
2022/12/25 14:44:34;;;;;;;7.90;6.20;;;10.50;99.90;;;;;;5071197;28;20216;-61
2022/12/25 14:47:17;;;;;;;8.23;6.57;;;10.50;99.90;;;;;;5059850;28;20197;-61
2022/12/25 14:49:45;;;;;;;7.67;6.27;;;10.40;99.90;;;;;;5059762;28;20815;-61
2022/12/25 14:52:20;;;;;;;8.20;6.53;;;10.40;99.90;;;;;;5055271;28;20353;-61